PPJVF SBIH-SBHT
Flight info
| Callsign | PPJVF |
|---|---|
| Flight time | N/A |
| Altitude | 23000 |
| Route | FAVOR Z13 EVRIS |
| Aircraft | BE9L/L-SBDFGRY/SB1 |
Departure
| Time | 2026-04-22 00:29 |
|---|---|
| Airport | Itaituba Airport (SBIH) |
Arrival
| Time | N/A |
|---|---|
| Airport | Altamira Interstate Airport (SBHT) |
| Time | Latitude | Longitude | Altitude | Speed | Heading |
|---|---|---|---|---|---|
| 2026-04-22 00:18 | -4.23661 | -55.99599 | 115 ft | 0 kts | 214° |
| 2026-04-22 00:24 | -4.23662 | -55.99599 | 115 ft | 0 kts | 214° |
| 2026-04-22 00:26 | -4.23645 | -55.99643 | 115 ft | 22 kts | 303° |
| 2026-04-22 00:27 | -4.23638 | -55.99690 | 115 ft | 0 kts | 214° |
| 2026-04-22 00:28 | -4.23639 | -55.99691 | 115 ft | 3 kts | 214° |
| 2026-04-22 00:28 | -4.23891 | -55.99851 | 115 ft | 82 kts | 217° |
| 2026-04-22 00:28 | -4.24500 | -56.00266 | 116 ft | 126 kts | 214° |
| 2026-04-22 00:29 | -4.25215 | -56.00734 | 523 ft | 122 kts | 213° |
| 2026-04-22 00:29 | -4.25951 | -56.01215 | 839 ft | 133 kts | 213° |
| 2026-04-22 00:29 | -4.26763 | -56.01734 | 1107 ft | 145 kts | 213° |
| 2026-04-22 00:29 | -4.27647 | -56.02309 | 1383 ft | 157 kts | 213° |
| 2026-04-22 00:30 | -4.28590 | -56.02935 | 1674 ft | 166 kts | 213° |
| 2026-04-22 00:30 | -4.29575 | -56.03531 | 2046 ft | 168 kts | 194° |
| 2026-04-22 00:30 | -4.30691 | -56.03416 | 2397 ft | 164 kts | 148° |
| 2026-04-22 00:30 | -4.31368 | -56.02576 | 2812 ft | 160 kts | 103° |
| 2026-04-22 00:31 | -4.31221 | -56.01489 | 3259 ft | 158 kts | 61° |
| 2026-04-22 00:31 | -4.30568 | -56.00594 | 3705 ft | 160 kts | 52° |
| 2026-04-22 00:31 | -4.29855 | -55.99736 | 4138 ft | 161 kts | 52° |
| 2026-04-22 00:31 | -4.29134 | -55.98871 | 4566 ft | 162 kts | 53° |
| 2026-04-22 00:32 | -4.28415 | -55.97998 | 4989 ft | 164 kts | 54° |
| 2026-04-22 00:32 | -4.27730 | -55.97077 | 5414 ft | 164 kts | 60° |
| 2026-04-22 00:32 | -4.27144 | -55.96089 | 5853 ft | 164 kts | 64° |
| 2026-04-22 00:32 | -4.26646 | -55.95064 | 6276 ft | 164 kts | 67° |
| 2026-04-22 00:33 | -4.26198 | -55.94001 | 6676 ft | 165 kts | 69° |
| 2026-04-22 00:33 | -4.25789 | -55.92930 | 7090 ft | 167 kts | 69° |
| 2026-04-22 00:33 | -4.25393 | -55.91826 | 7501 ft | 169 kts | 70° |
| 2026-04-22 00:33 | -4.25006 | -55.90705 | 7907 ft | 171 kts | 70° |
| 2026-04-22 00:34 | -4.24624 | -55.89573 | 8307 ft | 174 kts | 70° |
| 2026-04-22 00:34 | -4.24239 | -55.88416 | 8708 ft | 176 kts | 70° |
| 2026-04-22 00:34 | -4.23850 | -55.87238 | 9108 ft | 179 kts | 70° |
| 2026-04-22 00:34 | -4.23457 | -55.86043 | 9508 ft | 181 kts | 70° |
| 2026-04-22 00:35 | -4.23064 | -55.84844 | 9907 ft | 183 kts | 71° |
| 2026-04-22 00:35 | -4.22662 | -55.83615 | 10311 ft | 185 kts | 71° |
| 2026-04-22 00:35 | -4.22265 | -55.82400 | 10711 ft | 187 kts | 71° |
| 2026-04-22 00:35 | -4.21859 | -55.81153 | 11119 ft | 188 kts | 71° |
| 2026-04-22 00:36 | -4.21450 | -55.79900 | 11531 ft | 189 kts | 71° |
| 2026-04-22 00:36 | -4.21041 | -55.78645 | 11941 ft | 190 kts | 71° |
| 2026-04-22 00:36 | -4.20634 | -55.77396 | 12346 ft | 191 kts | 71° |
| 2026-04-22 00:36 | -4.20220 | -55.76127 | 12750 ft | 192 kts | 71° |
| 2026-04-22 00:37 | -4.19803 | -55.74850 | 13153 ft | 193 kts | 71° |
| 2026-04-22 00:37 | -4.19385 | -55.73566 | 13556 ft | 194 kts | 71° |
| 2026-04-22 00:37 | -4.18964 | -55.72276 | 13961 ft | 195 kts | 71° |
| 2026-04-22 00:37 | -4.18547 | -55.70998 | 14354 ft | 196 kts | 71° |
| 2026-04-22 00:38 | -4.18123 | -55.69696 | 14749 ft | 197 kts | 71° |
| 2026-04-22 00:38 | -4.17697 | -55.68389 | 15150 ft | 197 kts | 70° |
| 2026-04-22 00:38 | -4.17270 | -55.67081 | 15552 ft | 198 kts | 70° |
| 2026-04-22 00:38 | -4.16847 | -55.65785 | 15949 ft | 198 kts | 70° |
| 2026-04-22 00:39 | -4.16417 | -55.64465 | 16352 ft | 198 kts | 70° |
| 2026-04-22 00:39 | -4.15984 | -55.63139 | 16758 ft | 198 kts | 71° |
| 2026-04-22 00:39 | -4.15560 | -55.61838 | 17144 ft | 198 kts | 71° |
| 2026-04-22 00:39 | -4.15132 | -55.60526 | 17524 ft | 198 kts | 71° |
| 2026-04-22 00:40 | -4.14700 | -55.59201 | 17892 ft | 199 kts | 71° |
| 2026-04-22 00:40 | -4.14270 | -55.57885 | 18247 ft | 199 kts | 71° |
| 2026-04-22 00:40 | -4.13844 | -55.56577 | 18587 ft | 199 kts | 72° |
| 2026-04-22 00:40 | -4.13414 | -55.55261 | 18915 ft | 199 kts | 72° |
| 2026-04-22 00:41 | -4.12982 | -55.53937 | 19229 ft | 200 kts | 72° |
| 2026-04-22 00:41 | -4.12549 | -55.52611 | 19530 ft | 201 kts | 73° |
| 2026-04-22 00:41 | -4.12113 | -55.51272 | 19829 ft | 201 kts | 73° |
| 2026-04-22 00:41 | -4.11678 | -55.49939 | 20120 ft | 201 kts | 73° |
| 2026-04-22 00:42 | -4.11244 | -55.48608 | 20391 ft | 202 kts | 73° |
| 2026-04-22 00:42 | -4.10810 | -55.47278 | 20658 ft | 202 kts | 73° |
| 2026-04-22 00:42 | -4.10371 | -55.45932 | 20919 ft | 205 kts | 73° |
| 2026-04-22 00:42 | -4.09926 | -55.44566 | 21262 ft | 207 kts | 73° |
| 2026-04-22 00:43 | -4.09477 | -55.43191 | 21621 ft | 207 kts | 73° |
| 2026-04-22 00:43 | -4.09022 | -55.41799 | 21969 ft | 208 kts | 73° |
| 2026-04-22 00:43 | -4.08576 | -55.40430 | 22294 ft | 209 kts | 74° |
| 2026-04-22 00:43 | -4.08121 | -55.39033 | 22621 ft | 210 kts | 74° |
| 2026-04-22 00:44 | -4.07674 | -55.37622 | 22848 ft | 215 kts | 75° |
| 2026-04-22 00:44 | -4.07256 | -55.36171 | 22930 ft | 224 kts | 76° |
| 2026-04-22 00:44 | -4.06834 | -55.34632 | 22944 ft | 234 kts | 77° |
| 2026-04-22 00:44 | -4.06431 | -55.33131 | 22943 ft | 242 kts | 76° |
| 2026-04-22 00:45 | -4.05942 | -55.31368 | 22940 ft | 248 kts | 76° |
| 2026-04-22 00:45 | -4.05497 | -55.29693 | 22938 ft | 253 kts | 77° |
| 2026-04-22 00:45 | -4.05046 | -55.27964 | 22937 ft | 256 kts | 77° |
| 2026-04-22 00:45 | -4.04595 | -55.26230 | 22936 ft | 259 kts | 77° |
| 2026-04-22 00:46 | -4.04143 | -55.24494 | 22935 ft | 261 kts | 77° |
| 2026-04-22 00:46 | -4.03680 | -55.22715 | 22935 ft | 263 kts | 76° |
| 2026-04-22 00:46 | -4.03214 | -55.20930 | 22935 ft | 265 kts | 77° |
| 2026-04-22 00:46 | -4.02760 | -55.19195 | 22931 ft | 255 kts | 77° |
| 2026-04-22 00:47 | -4.02313 | -55.17492 | 22930 ft | 251 kts | 77° |
| 2026-04-22 00:47 | -4.01871 | -55.15804 | 22932 ft | 250 kts | 77° |
| 2026-04-22 00:47 | -4.01575 | -55.14677 | 22932 ft | 248 kts | 77° |
| 2026-04-22 00:48 | -3.99711 | -55.07573 | 22934 ft | 251 kts | 77° |